Time;durP1;ratioP1;P1;durP2;ratioP2;P2;SDS_P1;SDS_P2;PMS_P1;PMS_P2;Temp;Humidity;BMP_temperature;BMP_pressure;BME280_temperature;BME280_humidity;BME280_pressure;Samples;Min_cycle;Max_cycle;Signal;HPM_P1;HPM_P2
2023/11/18 00:01:33;;;;;;;10.63;3.70;;;11.70;99.90;;;11.14;100.00;101833.94;4188051;28;20017;-69
2023/11/18 00:03:34;;;;;;;7.93;3.65;;;11.70;99.90;;;11.15;100.00;101833.78;4188080;28;20033;-70
2023/11/18 00:05:35;;;;;;;6.20;3.10;;;11.70;99.90;;;11.16;100.00;101832.81;4194719;28;20025;-69
2023/11/18 00:07:36;;;;;;;9.25;3.88;;;11.70;99.90;;;11.17;100.00;101831.84;4187841;28;20025;-69
2023/11/18 00:09:36;;;;;;;6.70;3.65;;;11.80;99.90;;;11.21;100.00;101832.41;4188046;28;20033;-69
2023/11/18 00:11:38;;;;;;;13.98;4.20;;;11.70;99.90;;;11.20;100.00;101813.09;4198440;28;20024;-69
2023/11/18 00:13:39;;;;;;;11.02;3.10;;;11.80;99.90;;;11.21;100.00;101806.00;4203232;28;20099;-69
2023/11/18 00:15:40;;;;;;;9.13;4.22;;;11.80;99.90;;;11.23;100.00;101794.31;4192054;28;20096;-69
2023/11/18 00:17:41;;;;;;;10.20;3.20;;;11.80;99.90;;;11.23;100.00;101791.69;4187570;28;20075;-69
2023/11/18 00:19:42;;;;;;;11.43;3.75;;;11.80;99.90;;;11.23;100.00;101785.59;4193471;28;20017;-69
2023/11/18 00:21:44;;;;;;;7.95;3.15;;;11.80;99.90;;;11.21;100.00;101791.00;4204279;28;20035;-69
2023/11/18 00:23:45;;;;;;;8.98;3.05;;;11.80;99.90;;;11.26;100.00;101795.88;4191424;28;20060;-69
2023/11/18 00:25:46;;;;;;;6.93;2.88;;;11.80;99.90;;;11.28;100.00;101794.78;4201912;28;20046;-69
2023/11/18 00:27:47;;;;;;;9.35;3.50;;;11.80;99.90;;;11.28;100.00;101796.56;4198448;28;20507;-69
2023/11/18 00:29:47;;;;;;;8.05;3.17;;;11.80;99.90;;;11.26;100.00;101788.78;4188139;28;20383;-69
2023/11/18 00:31:48;;;;;;;11.95;3.67;;;11.90;99.90;;;11.30;100.00;101784.06;4191504;28;20508;-70
2023/11/18 00:33:49;;;;;;;7.65;3.22;;;11.80;99.90;;;11.30;100.00;101784.06;4194741;28;20021;-70
2023/11/18 00:35:50;;;;;;;11.23;3.08;;;11.90;99.90;;;11.30;100.00;101776.13;4186126;28;20029;-70
2023/11/18 00:37:51;;;;;;;8.77;2.92;;;11.90;99.90;;;11.33;100.00;101778.50;4195060;28;20028;-70
2023/11/18 00:39:52;;;;;;;14.10;3.50;;;11.90;99.90;;;11.33;100.00;101778.50;4191753;28;20481;-70
2023/11/18 00:41:54;;;;;;;5.80;2.35;;;11.90;99.90;;;11.31;100.00;101770.75;4186991;28;20025;-70
2023/11/18 00:43:54;;;;;;;7.03;2.30;;;11.90;99.90;;;11.32;100.00;101767.09;4187426;28;20111;-69
2023/11/18 00:45:57;;;;;;;5.60;2.13;;;11.90;99.90;;;11.32;100.00;101763.66;4187322;28;20027;-69
2023/11/18 00:47:58;;;;;;;9.32;1.80;;;11.90;99.90;;;11.30;100.00;101761.13;4187178;28;20024;-70
2023/11/18 00:50:01;;;;;;;6.03;1.58;;;11.90;99.90;;;11.25;100.00;101759.88;4187137;28;20021;-70
2023/11/18 00:52:03;;;;;;;6.57;1.67;;;11.90;99.90;;;11.23;100.00;101753.91;4187385;28;20032;-70
2023/11/18 00:54:07;;;;;;;7.88;1.80;;;11.80;99.90;;;11.24;100.00;101766.13;4204598;28;20109;-70
2023/11/18 00:56:12;;;;;;;4.90;1.77;;;11.80;99.90;;;11.23;100.00;101769.75;4218789;28;20047;-70
2023/11/18 00:58:13;;;;;;;6.88;1.52;;;11.80;99.90;;;11.23;100.00;101772.38;4218848;28;20056;-69
2023/11/18 01:00:26;;;;;;;5.03;1.58;;;11.80;99.90;;;11.21;100.00;101764.59;4219269;28;20032;-69
2023/11/18 01:02:27;;;;;;;7.72;1.58;;;11.80;99.90;;;11.27;100.00;101768.50;4202272;28;20538;-70
2023/11/18 01:04:28;;;;;;;3.80;1.23;;;11.80;99.90;;;11.23;100.00;101772.38;4188538;28;20021;-70
2023/11/18 01:06:29;;;;;;;5.38;1.63;;;11.80;99.90;;;11.24;100.00;101764.31;4190530;28;20023;-70
2023/11/18 01:08:30;;;;;;;3.85;1.25;;;11.80;99.90;;;11.27;100.00;101752.63;4194400;28;20493;-69
2023/11/18 01:10:31;;;;;;;2.50;1.10;;;11.80;99.90;;;11.28;100.00;101747.25;4186763;28;20484;-70
2023/11/18 01:12:32;;;;;;;4.53;1.70;;;11.80;99.90;;;11.27;100.00;101747.34;4186764;28;20463;-70
2023/11/18 01:14:32;;;;;;;4.07;1.20;;;11.80;99.90;;;11.28;100.00;101741.94;4185535;28;20071;-69
2023/11/18 01:16:34;;;;;;;2.70;1.00;;;11.80;99.90;;;11.30;100.00;101720.66;4186953;28;20025;-70
2023/11/18 01:18:35;;;;;;;6.07;1.35;;;11.90;99.90;;;11.28;100.00;101723.47;4186849;28;20033;-69
2023/11/18 01:20:37;;;;;;;5.18;1.73;;;11.80;99.90;;;11.33;100.00;101715.94;4199891;28;20025;-70
2023/11/18 01:22:39;;;;;;;5.35;1.25;;;11.90;99.90;;;11.31;100.00;101722.34;4203163;28;20048;-70
2023/11/18 01:24:40;;;;;;;5.43;1.45;;;11.80;99.90;;;11.32;100.00;101734.59;4202046;28;20028;-69
2023/11/18 01:26:41;;;;;;;3.97;1.02;;;11.90;99.90;;;11.32;100.00;101734.59;4203106;28;20066;-70
2023/11/18 01:28:43;;;;;;;6.70;1.33;;;11.90;99.90;;;11.31;100.00;101727.63;4203118;28;20157;-69
2023/11/18 01:30:44;;;;;;;3.53;1.00;;;11.90;99.90;;;11.33;100.00;101736.25;4201989;28;20322;-69
2023/11/18 01:32:46;;;;;;;5.22;1.17;;;11.90;99.90;;;11.37;100.00;101727.94;4202890;28;20055;-69
2023/11/18 01:34:50;;;;;;;5.38;1.20;;;11.90;99.90;;;11.37;100.00;101745.59;4191966;28;20021;-70
2023/11/18 01:36:51;;;;;;;7.38;1.70;;;11.90;99.90;;;11.35;100.00;101732.50;4185197;28;20036;-69
2023/11/18 01:38:51;;;;;;;4.70;1.25;;;11.90;99.90;;;11.38;100.00;101734.88;4186588;28;20411;-69
2023/11/18 01:40:55;;;;;;;8.15;1.70;;;11.90;99.90;;;11.41;100.00;101728.50;4186321;28;20028;-69
2023/11/18 01:42:56;;;;;;;5.72;2.20;;;11.90;99.90;;;11.40;100.00;101708.31;4190416;28;20024;-69
2023/11/18 01:44:59;;;;;;;3.08;1.02;;;12.00;99.90;;;11.41;100.00;101694.16;4187913;28;20036;-69
2023/11/18 01:47:12;;;;;;;5.65;1.55;;;12.00;99.90;;;11.43;100.00;101698.31;4185310;28;20028;-69
2023/11/18 01:49:14;;;;;;;5.10;1.52;;;12.00;99.90;;;11.45;100.00;101704.28;4201475;28;20111;-70
2023/11/18 01:51:15;;;;;;;4.10;1.30;;;12.00;99.90;;;11.47;100.00;101701.50;4218421;28;20036;-69
2023/11/18 01:53:16;;;;;;;3.75;1.25;;;12.00;99.90;;;11.48;100.00;101713.75;4199004;28;20020;-70
2023/11/18 01:55:17;;;;;;;7.50;1.75;;;12.00;99.90;;;11.48;100.00;101724.31;4200611;28;20032;-70
2023/11/18 01:57:18;;;;;;;8.00;1.85;;;12.00;99.90;;;11.50;100.00;101727.63;4195084;28;20023;-70
2023/11/18 01:59:19;;;;;;;5.88;1.38;;;12.00;99.90;;;11.53;100.00;101722.06;4202699;28;20480;-70
2023/11/18 02:01:20;;;;;;;2.40;1.30;;;12.00;99.90;;;11.52;100.00;101710.69;4185007;28;20508;-69
2023/11/18 02:03:21;;;;;;;4.38;2.10;;;12.10;99.90;;;11.54;100.00;101697.34;4185195;28;20017;-69
2023/11/18 02:05:22;;;;;;;5.35;1.50;;;12.10;99.90;;;11.56;100.00;101695.38;4186113;28;20064;-69
2023/11/18 02:07:24;;;;;;;6.55;1.40;;;12.10;99.90;;;11.54;100.00;101694.69;4186035;28;20029;-69
2023/11/18 02:09:28;;;;;;;5.32;2.00;;;12.10;99.90;;;11.56;100.00;101709.44;4215129;28;20036;-69
2023/11/18 02:11:41;;;;;;;6.47;1.58;;;12.10;99.90;;;11.55;100.00;101718.34;4200551;28;20093;-69
2023/11/18 02:13:47;;;;;;;9.63;2.03;;;12.10;99.90;;;11.59;100.00;101711.78;4201346;28;20024;-70
2023/11/18 02:15:48;;;;;;;11.80;2.45;;;12.10;99.90;;;11.62;100.00;101708.88;4184693;28;20021;-69
2023/11/18 02:17:53;;;;;;;6.07;2.05;;;12.20;99.90;;;11.64;100.00;101709.59;4185890;28;20116;-70
2023/11/18 02:19:57;;;;;;;7.20;2.65;;;12.20;99.90;;;11.67;100.00;101719.03;4193979;28;20539;-69
2023/11/18 02:22:00;;;;;;;12.93;2.20;;;12.20;99.90;;;11.64;100.00;101720.16;4202272;28;20039;-69
2023/11/18 02:24:01;;;;;;;9.23;2.47;;;12.20;99.90;;;11.69;100.00;101714.44;4201008;28;20098;-69
2023/11/18 02:26:02;;;;;;;7.82;2.80;;;12.20;99.90;;;11.66;100.00;101704.16;4202148;28;20350;-69
2023/11/18 02:28:03;;;;;;;7.72;2.38;;;12.20;99.90;;;11.69;100.00;101695.94;4202342;28;20025;-69
2023/11/18 02:30:06;;;;;;;8.73;3.05;;;12.30;99.90;;;11.72;100.00;101700.97;4202200;28;20066;-69
2023/11/18 02:32:37;;;;;;;10.02;2.28;;;12.30;99.90;;;11.68;100.00;101697.75;4200548;28;20093;-70
2023/11/18 02:34:47;;;;;;;10.05;2.60;;;12.30;99.90;;;11.75;100.00;101711.28;4200703;28;20467;-70
2023/11/18 02:36:50;;;;;;;5.32;2.25;;;12.30;99.90;;;11.76;100.00;101714.75;4187785;28;20392;-69
2023/11/18 02:38:54;;;;;;;8.02;2.67;;;12.30;99.90;;;11.76;100.00;101701.53;4188022;28;20017;-69
2023/11/18 02:41:01;;;;;;;4.63;1.60;;;12.30;99.90;;;11.78;100.00;101687.22;4217174;28;20024;-69
2023/11/18 02:43:05;;;;;;;21.85;3.05;;;12.30;99.90;;;11.78;100.00;101674.00;4215101;28;20024;-70
2023/11/18 02:45:12;;;;;;;8.23;2.30;;;12.30;99.90;;;11.80;100.00;101666.75;4185640;28;20033;-70
2023/11/18 02:47:14;;;;;;;6.10;2.10;;;12.40;99.90;;;11.81;100.00;101671.06;4189936;28;20032;-69
2023/11/18 02:49:17;;;;;;;5.88;2.13;;;12.40;99.90;;;11.80;100.00;101661.47;4202927;28;20027;-69
2023/11/18 02:51:18;;;;;;;12.70;3.03;;;12.40;99.90;;;11.82;100.00;101656.88;4188907;28;20033;-69
2023/11/18 02:53:19;;;;;;;8.35;2.20;;;12.40;99.90;;;11.83;100.00;101655.88;4187040;28;20032;-69
2023/11/18 02:55:24;;;;;;;6.38;1.85;;;12.40;99.90;;;11.80;100.00;101650.88;4185213;28;20025;-70
2023/11/18 02:57:25;;;;;;;6.25;2.05;;;12.40;99.90;;;11.83;100.00;101660.34;4190837;28;20365;-70
2023/11/18 02:59:30;;;;;;;11.88;1.90;;;12.40;99.90;;;11.86;100.00;101662.69;4189142;28;20023;-70
2023/11/18 03:01:34;;;;;;;10.50;2.67;;;12.40;99.90;;;11.84;100.00;101651.44;4185315;28;20044;-69
2023/11/18 03:03:35;;;;;;;6.50;1.73;;;12.40;99.90;;;11.84;100.00;101646.16;4191833;28;20025;-69
2023/11/18 03:05:36;;;;;;;10.00;2.53;;;12.40;99.90;;;11.87;100.00;101644.06;4191833;28;20090;-69
2023/11/18 03:07:38;;;;;;;6.88;2.10;;;12.40;99.90;;;11.86;100.00;101634.44;4184345;28;20021;-69
2023/11/18 03:09:39;;;;;;;6.72;1.55;;;12.40;99.90;;;11.88;100.00;101627.25;4187303;28;20473;-69
2023/11/18 03:11:40;;;;;;;7.72;1.77;;;12.40;99.90;;;11.88;100.00;101634.31;4201618;28;20028;-69
2023/11/18 03:13:41;;;;;;;7.82;2.10;;;12.40;99.90;;;11.89;100.00;101639.47;4201791;28;20078;-69
2023/11/18 03:15:42;;;;;;;6.03;1.30;;;12.40;99.90;;;11.90;100.00;101649.06;4188528;28;20081;-69
2023/11/18 03:17:48;;;;;;;5.50;1.77;;;12.50;99.90;;;11.90;100.00;101645.59;4183990;28;20033;-69
2023/11/18 03:19:50;;;;;;;12.27;2.42;;;12.50;99.90;;;11.91;100.00;101650.75;4190553;28;20021;-69
2023/11/18 03:21:53;;;;;;;9.68;2.75;;;12.50;99.90;;;11.95;100.00;101635.41;4201825;28;20020;-69
2023/11/18 03:23:53;;;;;;;6.63;2.17;;;12.50;99.90;;;11.93;100.00;101640.00;4201546;28;20032;-69
2023/11/18 03:25:55;;;;;;;5.68;1.98;;;12.50;99.90;;;11.96;100.00;101639.72;4173926;28;20031;-69
2023/11/18 03:27:56;;;;;;;7.80;1.80;;;12.50;99.90;;;11.95;100.00;101638.88;4195066;28;20400;-69
2023/11/18 03:29:56;;;;;;;8.38;1.70;;;12.50;99.90;;;11.96;100.00;101643.22;4204193;28;20046;-69
2023/11/18 03:31:58;;;;;;;7.35;2.00;;;12.50;99.90;;;11.95;100.00;101628.31;4200298;28;20039;-70
2023/11/18 03:33:59;;;;;;;9.98;1.60;;;12.50;99.90;;;11.99;100.00;101626.22;4198531;28;20021;-70
2023/11/18 03:35:59;;;;;;;10.65;2.15;;;12.50;99.90;;;12.02;100.00;101632.06;4185243;28;20056;-69
2023/11/18 03:38:00;;;;;;;5.57;1.65;;;12.50;99.90;;;12.00;100.00;101618.16;4186648;28;20029;-69
2023/11/18 03:40:01;;;;;;;8.48;1.58;;;12.50;99.90;;;12.04;100.00;101616.03;4200189;28;20105;-70
2023/11/18 03:42:02;;;;;;;12.45;2.05;;;12.50;99.90;;;12.07;100.00;101621.03;4184271;28;20059;-69
2023/11/18 03:44:04;;;;;;;12.50;1.58;;;12.60;99.90;;;12.04;100.00;101611.59;4189041;28;20025;-70
2023/11/18 03:46:07;;;;;;;10.20;1.65;;;12.60;99.90;;;12.06;100.00;101604.38;4185098;28;20055;-69
2023/11/18 03:48:08;;;;;;;11.75;3.30;;;12.60;99.90;;;12.09;100.00;101597.94;4185019;28;20029;-69
2023/11/18 03:50:09;;;;;;;7.55;1.70;;;12.60;99.90;;;12.09;100.00;101587.38;4184767;28;20025;-70
2023/11/18 03:52:10;;;;;;;17.23;3.78;;;12.60;99.90;;;12.12;100.00;101582.63;4185010;28;20115;-69
2023/11/18 03:54:12;;;;;;;8.18;2.20;;;12.60;99.90;;;12.12;100.00;101582.63;4194432;28;20029;-70
2023/11/18 03:56:20;;;;;;;11.25;1.70;;;12.60;99.90;;;12.15;100.00;101584.97;4187703;28;20032;-69
2023/11/18 03:58:21;;;;;;;13.43;2.80;;;12.70;99.90;;;12.13;100.00;101583.44;4186481;28;20024;-70
2023/11/18 04:00:22;;;;;;;10.93;1.60;;;12.70;99.90;;;12.16;100.00;101567.28;4195154;28;20079;-69
2023/11/18 04:02:23;;;;;;;16.40;2.00;;;12.70;99.90;;;12.14;100.00;101564.78;4203399;28;20090;-70
2023/11/18 04:04:23;;;;;;;6.68;1.30;;;12.80;99.90;;;12.22;100.00;101566.69;4200103;28;20032;-69
2023/11/18 04:06:24;;;;;;;14.82;1.95;;;12.70;99.90;;;12.23;100.00;101559.59;4200073;28;20024;-69
2023/11/18 04:08:25;;;;;;;10.40;2.00;;;12.80;99.90;;;12.23;100.00;101549.84;4200010;28;20028;-69
2023/11/18 04:10:27;;;;;;;10.60;1.92;;;12.80;99.90;;;12.27;100.00;101547.75;4201166;28;20035;-69
2023/11/18 04:12:28;;;;;;;10.32;1.90;;;12.80;99.90;;;12.28;100.00;101550.22;4200107;28;20029;-70
2023/11/18 04:14:28;;;;;;;19.05;3.03;;;12.80;99.90;;;12.28;100.00;101554.69;4198449;28;20051;-69
2023/11/18 04:16:29;;;;;;;11.07;2.30;;;12.80;99.90;;;12.34;100.00;101564.69;4184760;28;20037;-70
2023/11/18 04:18:30;;;;;;;9.52;1.75;;;12.90;99.90;;;12.34;100.00;101565.50;4188642;28;20025;-70
2023/11/18 04:20:32;;;;;;;8.07;2.42;;;12.80;99.90;;;12.34;100.00;101562.88;4200265;28;20031;-69
2023/11/18 04:22:33;;;;;;;9.73;1.50;;;12.90;99.90;;;12.35;100.00;101567.19;4204051;28;20032;-69
2023/11/18 04:24:34;;;;;;;16.10;2.20;;;12.90;99.90;;;12.33;100.00;101570.97;4203003;28;20032;-69
2023/11/18 04:26:35;;;;;;;15.68;2.20;;;12.90;99.90;;;12.36;100.00;101568.03;4204019;28;20052;-69
2023/11/18 04:28:36;;;;;;;14.25;2.20;;;12.90;99.90;;;12.38;100.00;101577.47;4202875;28;20536;-69
2023/11/18 04:30:38;;;;;;;11.95;1.55;;;12.90;99.90;;;12.43;100.00;101580.50;4204013;28;20035;-69
2023/11/18 04:32:42;;;;;;;15.50;2.58;;;13.00;99.90;;;12.44;100.00;101571.59;4202721;28;20052;-69
2023/11/18 04:34:43;;;;;;;17.38;2.50;;;13.00;99.90;;;12.41;100.00;101556.03;4192809;28;20446;-69
2023/11/18 04:36:44;;;;;;;13.35;2.53;;;13.00;99.90;;;12.50;100.00;101559.59;4211497;28;20035;-69
2023/11/18 04:38:44;;;;;;;11.73;2.08;;;13.00;99.90;;;12.49;100.00;101553.47;4188217;28;20029;-69
2023/11/18 04:40:46;;;;;;;16.50;2.75;;;13.00;99.90;;;12.47;100.00;101538.72;4187298;28;20025;-70
2023/11/18 04:42:47;;;;;;;15.23;3.47;;;13.00;99.90;;;12.50;100.00;101544.53;4204340;28;20032;-69
2023/11/18 04:44:47;;;;;;;13.02;2.45;;;13.10;99.90;;;12.48;100.00;101538.56;4191832;28;20024;-69
2023/11/18 04:46:48;;;;;;;18.02;2.40;;;13.00;99.90;;;12.49;100.00;101547.31;4216530;28;20020;-69
2023/11/18 04:48:49;;;;;;;14.80;2.75;;;13.00;99.90;;;12.49;100.00;101553.47;4202987;28;20024;-69
2023/11/18 04:50:50;;;;;;;11.18;2.30;;;13.00;99.90;;;12.47;100.00;101550.13;4195675;28;20503;-69
2023/11/18 04:52:51;;;;;;;15.07;1.92;;;13.00;99.90;;;12.48;100.00;101556.25;4185961;28;20510;-69
2023/11/18 04:54:51;;;;;;;15.77;3.03;;;13.00;99.90;;;12.48;100.00;101556.25;4191728;28;20029;-69
2023/11/18 04:56:52;;;;;;;15.48;2.25;;;13.00;99.90;;;12.47;100.00;101554.59;4193919;28;20046;-69
2023/11/18 04:58:53;;;;;;;16.67;2.22;;;13.10;99.90;;;12.48;100.00;101553.63;4187203;28;20033;-69
2023/11/18 05:00:54;;;;;;;18.20;3.03;;;13.00;99.90;;;12.49;100.00;101563.19;4186914;28;20052;-69
2023/11/18 05:02:55;;;;;;;15.98;2.10;;;13.00;99.90;;;12.52;100.00;101569.03;4214267;28;20032;-69
2023/11/18 05:04:56;;;;;;;10.52;1.67;;;13.00;99.90;;;12.49;100.00;101564.03;4199637;28;20032;-69
2023/11/18 05:06:57;;;;;;;15.38;2.22;;;13.10;99.90;;;12.52;100.00;101571.69;4187075;28;20041;-69
2023/11/18 05:08:57;;;;;;;12.32;2.50;;;13.00;99.90;;;12.54;100.00;101567.09;4186988;28;20085;-69
2023/11/18 05:10:58;;;;;;;12.00;2.00;;;13.10;99.90;;;12.51;100.00;101555.97;4186611;28;20039;-69
2023/11/18 05:12:59;;;;;;;13.77;2.45;;;13.10;99.90;;;12.55;100.00;101547.56;4187015;28;20511;-69
2023/11/18 05:15:01;;;;;;;13.85;1.77;;;13.10;99.90;;;12.54;100.00;101542.44;4196724;28;20051;-69
2023/11/18 05:17:04;;;;;;;19.48;2.20;;;13.10;99.90;;;12.52;100.00;101537.28;4205622;28;20024;-69
2023/11/18 05:19:05;;;;;;;17.77;3.28;;;13.10;99.90;;;12.56;100.00;101541.31;4202317;28;20028;-69
2023/11/18 05:21:06;;;;;;;14.50;3.92;;;13.10;99.90;;;12.54;100.00;101545.94;4198212;28;20033;-69
2023/11/18 05:23:09;;;;;;;15.95;2.80;;;13.10;99.90;;;12.51;100.00;101540.09;4192993;28;20027;-69
2023/11/18 05:25:10;;;;;;;12.70;3.33;;;13.10;99.90;;;12.57;100.00;101550.88;4192293;28;20035;-69
2023/11/18 05:27:11;;;;;;;15.50;2.92;;;13.10;99.90;;;12.57;100.00;101556.19;4213277;28;20415;-69
2023/11/18 05:29:16;;;;;;;20.00;2.83;;;13.10;99.90;;;12.57;100.00;101539.50;4198864;28;20035;-69
2023/11/18 05:31:17;;;;;;;15.60;2.70;;;13.10;99.90;;;12.55;100.00;101536.16;4200224;28;20455;-70
2023/11/18 05:33:19;;;;;;;14.68;2.15;;;13.10;99.90;;;12.55;100.00;101528.19;4197508;28;20041;-70
2023/11/18 05:35:23;;;;;;;20.10;3.28;;;13.10;99.90;;;12.54;100.00;101532.69;4188967;28;20033;-69
2023/11/18 05:37:25;;;;;;;16.33;2.13;;;13.10;99.90;;;12.55;100.00;101539.63;4193429;28;20050;-69
2023/11/18 05:39:27;;;;;;;14.23;2.70;;;13.10;99.90;;;12.59;100.00;101548.09;4201756;28;20031;-70
2023/11/18 05:41:30;;;;;;;17.13;3.10;;;13.10;99.90;;;12.57;100.00;101526.25;4201773;28;20013;-70
2023/11/18 05:43:36;;;;;;;14.38;2.75;;;13.10;99.90;;;12.56;100.00;101521.94;4214960;28;20016;-70
2023/11/18 05:45:55;;;;;;;26.63;2.25;;;13.10;99.90;;;12.56;100.00;101516.66;4201993;28;20104;-69
2023/11/18 05:47:56;;;;;;;12.20;2.13;;;13.10;99.90;;;12.56;100.00;101514.00;4202166;28;20518;-69
2023/11/18 05:49:57;;;;;;;10.38;1.95;;;13.10;99.90;;;12.54;100.00;101505.38;4201711;28;20051;-70
2023/11/18 05:51:58;;;;;;;18.83;3.90;;;13.00;99.90;;;12.56;100.00;101512.19;4203029;28;20033;-69
2023/11/18 05:53:59;;;;;;;17.13;3.35;;;13.10;99.90;;;12.55;100.00;101507.88;4195806;28;20025;-69
2023/11/18 05:56:00;;;;;;;12.82;3.38;;;13.10;99.90;;;12.58;100.00;101517.31;4186059;28;20025;-69
2023/11/18 05:58:01;;;;;;;14.70;2.50;;;13.10;99.90;;;12.57;100.00;101516.47;4186073;28;20053;-69
2023/11/18 06:00:05;;;;;;;13.10;2.15;;;13.10;99.90;;;12.55;100.00;101505.22;4186327;28;20028;-69
2023/11/18 06:02:06;;;;;;;13.93;2.75;;;13.10;99.90;;;12.60;100.00;101507.44;4186122;28;20108;-69
2023/11/18 06:04:10;;;;;;;16.95;3.47;;;13.10;99.90;;;12.60;100.00;101500.31;4186288;28;20032;-69
2023/11/18 06:06:13;;;;;;;15.73;3.35;;;13.10;99.90;;;12.62;100.00;101503.66;4185917;28;20025;-69
2023/11/18 06:08:14;;;;;;;9.07;1.93;;;13.10;99.90;;;12.63;100.00;101502.66;4193225;28;20467;-69
2023/11/18 06:10:15;;;;;;;16.70;3.55;;;13.10;99.90;;;12.64;100.00;101499.03;4185850;28;20029;-69
2023/11/18 06:12:17;;;;;;;7.95;2.13;;;13.10;99.90;;;12.68;100.00;101504.84;4186050;28;20029;-69
2023/11/18 06:14:18;;;;;;;18.50;2.75;;;13.20;99.90;;;12.65;100.00;101507.81;4198764;28;20104;-69
2023/11/18 06:16:22;;;;;;;16.17;2.65;;;13.20;99.90;;;12.65;100.00;101505.16;4197423;28;20044;-69
2023/11/18 06:18:23;;;;;;;11.32;2.78;;;13.20;99.90;;;12.69;100.00;101514.47;4185926;28;20385;-70
2023/11/18 06:20:24;;;;;;;13.27;2.20;;;13.20;99.90;;;12.69;100.00;101511.81;4197397;28;20035;-69
2023/11/18 06:22:25;;;;;;;6.88;2.20;;;13.20;99.90;;;12.73;100.00;101500.78;4202421;28;20032;-69
2023/11/18 06:24:26;;;;;;;12.95;3.00;;;13.20;99.90;;;12.72;100.00;101496.44;4202408;28;20020;-69
2023/11/18 06:26:27;;;;;;;12.73;3.03;;;13.20;99.90;;;12.72;100.00;101495.66;4202195;28;20032;-69
2023/11/18 06:28:28;;;;;;;12.70;2.15;;;13.30;99.90;;;12.78;100.00;101489.75;4202354;28;20594;-69
2023/11/18 06:30:30;;;;;;;16.20;2.83;;;13.30;99.90;;;12.77;100.00;101482.78;4202161;28;20028;-69
2023/11/18 06:32:31;;;;;;;12.82;2.08;;;13.30;99.90;;;12.77;100.00;101494.19;4202110;28;20040;-69
2023/11/18 06:34:32;;;;;;;9.75;2.72;;;13.30;99.90;;;12.75;100.00;101498.00;4194323;28;20029;-69
2023/11/18 06:36:33;;;;;;;11.32;2.65;;;13.30;99.90;;;12.77;100.00;101502.16;4184372;28;20119;-69
2023/11/18 06:38:34;;;;;;;16.95;3.28;;;13.30;99.90;;;12.79;100.00;101496.69;4185473;28;20039;-69
2023/11/18 06:40:35;;;;;;;9.00;2.13;;;13.30;99.90;;;12.82;100.00;101503.47;4185419;28;20017;-69
2023/11/18 06:42:38;;;;;;;9.07;2.50;;;13.30;99.90;;;12.84;100.00;101512.13;4185595;28;20082;-69
2023/11/18 06:44:40;;;;;;;12.77;2.47;;;13.30;99.90;;;12.80;100.00;101508.94;4185625;28;20013;-69
2023/11/18 06:46:41;;;;;;;15.93;3.10;;;13.40;99.90;;;12.84;100.00;101514.78;4212760;28;20102;-69
2023/11/18 06:48:42;;;;;;;9.93;2.80;;;13.40;99.90;;;12.85;100.00;101514.59;4198271;28;20444;-69
2023/11/18 06:50:44;;;;;;;14.20;2.55;;;13.40;99.90;;;12.87;100.00;101519.78;4198925;28;20027;-69
2023/11/18 06:52:45;;;;;;;7.15;2.28;;;13.40;99.90;;;12.91;100.00;101521.94;4203545;28;20036;-69
2023/11/18 06:54:45;;;;;;;7.50;2.42;;;13.40;99.90;;;12.90;100.00;101520.31;4201468;28;20039;-69
2023/11/18 06:56:46;;;;;;;9.25;2.20;;;13.40;99.90;;;12.99;100.00;101523.84;4202263;28;20029;-70
2023/11/18 06:58:47;;;;;;;12.50;2.70;;;13.50;99.90;;;13.01;100.00;101517.41;4202160;28;20033;-70
2023/11/18 07:00:48;;;;;;;6.88;1.80;;;13.50;99.90;;;13.04;100.00;101517.09;4200728;28;20028;-70
2023/11/18 07:02:49;;;;;;;5.95;1.55;;;13.50;99.90;;;13.08;100.00;101523.78;4187010;28;20575;-70
2023/11/18 07:04:50;;;;;;;8.30;1.90;;;13.50;99.90;;;13.09;100.00;101508.72;4188573;28;20016;-69
2023/11/18 07:06:51;;;;;;;5.20;1.50;;;13.60;99.90;;;13.15;100.00;101505.44;4200900;28;20031;-69
2023/11/18 07:08:54;;;;;;;6.53;1.15;;;13.60;99.90;;;13.16;100.00;101497.38;4201888;28;20021;-69
2023/11/18 07:10:56;;;;;;;7.15;1.70;;;13.60;99.90;;;13.16;100.00;101494.72;4201731;28;20032;-69
2023/11/18 07:12:59;;;;;;;4.25;1.15;;;13.60;99.90;;;13.18;100.00;101492.75;4201916;28;20380;-70
2023/11/18 07:15:00;;;;;;;3.80;1.67;;;13.70;99.90;;;13.20;100.00;101487.31;4201853;28;20400;-70
2023/11/18 07:17:02;;;;;;;6.50;1.50;;;13.70;99.90;;;13.21;100.00;101496.88;4201745;28;20063;-70
2023/11/18 07:19:03;;;;;;;5.05;1.20;;;13.70;99.90;;;13.15;100.00;101482.44;4200599;28;20033;-69
2023/11/18 07:21:05;;;;;;;4.90;1.50;;;13.70;99.90;;;13.20;100.00;101480.16;4197784;28;20036;-70
2023/11/18 07:23:08;;;;;;;6.05;2.08;;;13.70;99.90;;;13.28;100.00;101482.88;4185367;28;20029;-70
2023/11/18 07:25:09;;;;;;;3.30;1.35;;;13.70;99.90;;;13.30;100.00;101490.66;4183593;28;20075;-69
2023/11/18 07:27:11;;;;;;;8.38;1.40;;;13.80;99.90;;;13.27;100.00;101491.81;4184935;28;20032;-69
2023/11/18 07:29:12;;;;;;;4.70;1.50;;;13.80;99.90;;;13.32;100.00;101489.50;4200521;28;20027;-69
2023/11/18 07:31:13;;;;;;;5.13;2.08;;;13.80;99.90;;;13.29;100.00;101500.44;4191290;28;20029;-69
2023/11/18 07:33:18;;;;;;;7.60;2.58;;;13.80;99.90;;;13.35;100.00;101498.16;4197409;28;20411;-69
2023/11/18 07:35:19;;;;;;;7.80;2.85;;;13.80;99.90;;;13.30;100.00;101499.44;4186921;28;20439;-70
2023/11/18 07:37:20;;;;;;;11.90;2.92;;;13.80;99.90;;;13.32;100.00;101509.06;4193183;28;20028;-70
2023/11/18 07:39:29;;;;;;;11.63;3.25;;;13.80;99.90;;;13.34;100.00;101507.09;4193983;28;20051;-69
2023/11/18 07:41:33;;;;;;;13.90;3.63;;;13.80;99.90;;;13.34;100.00;101497.31;4191552;28;20028;-70
2023/11/18 07:43:40;;;;;;;13.55;3.20;;;13.80;99.90;;;13.36;100.00;101502.44;4183615;28;20033;-70
2023/11/18 07:45:45;;;;;;;12.45;3.60;;;13.90;99.90;;;13.38;100.00;101511.91;4194944;28;20506;-70
2023/11/18 07:47:46;;;;;;;16.33;3.53;;;13.80;99.90;;;13.40;100.00;101512.59;4185159;28;20096;-69
2023/11/18 07:49:47;;;;;;;14.35;3.72;;;13.90;99.90;;;13.41;100.00;101510.78;4187424;28;20021;-69
2023/11/18 07:51:48;;;;;;;12.48;3.38;;;13.90;99.90;;;13.43;100.00;101514.09;4184972;28;20032;-69
2023/11/18 07:53:50;;;;;;;16.45;4.22;;;13.90;99.90;;;13.40;100.00;101519.72;4187060;28;20031;-69
2023/11/18 07:55:51;;;;;;;17.48;4.45;;;13.90;99.90;;;13.42;100.00;101521.22;4187971;28;20070;-69
2023/11/18 07:57:52;;;;;;;18.35;4.13;;;13.90;99.90;;;13.43;100.00;101528.19;4188037;28;20037;-69
2023/11/18 07:59:54;;;;;;;17.48;4.20;;;13.90;99.90;;;13.45;100.00;101528.03;4191547;28;20032;-69
2023/11/18 08:01:56;;;;;;;18.02;5.43;;;14.00;99.90;;;13.43;100.00;101522.06;4205052;28;20078;-69
2023/11/18 08:03:57;;;;;;;17.50;3.78;;;13.90;99.90;;;13.45;100.00;101523.56;4203396;28;20025;-69
2023/11/18 08:05:57;;;;;;;12.15;4.45;;;14.00;99.90;;;13.48;100.00;101531.19;4190954;28;20025;-69
2023/11/18 08:07:59;;;;;;;12.85;4.43;;;13.90;99.90;;;13.46;100.00;101527.88;4186799;28;20024;-69
2023/11/18 08:10:00;;;;;;;18.10;4.43;;;14.00;99.90;;;13.47;100.00;101520.78;4187729;28;20029;-69
2023/11/18 08:12:00;;;;;;;29.05;5.30;;;14.00;99.90;;;13.45;100.00;101525.38;4187941;28;20132;-69
2023/11/18 08:14:02;;;;;;;24.42;5.63;;;14.00;99.90;;;13.47;100.00;101521.56;4187801;28;20025;-69
2023/11/18 08:16:04;;;;;;;24.08;5.25;;;14.00;99.90;;;13.49;100.00;101532.88;4186614;28;20025;-69
2023/11/18 08:18:04;;;;;;;23.65;4.75;;;14.00;99.90;;;13.51;100.00;101532.72;4189034;28;20029;-69
2023/11/18 08:20:15;;;;;;;23.67;4.40;;;14.00;99.90;;;13.50;100.00;101531.06;4196412;28;20413;-69